sensor_id;sensor_type;location;lat;lon;timestamp;temperature;humidity
29775;DHT22;16676;51.202;6.774;2022-10-16T00:01:20;20.20;75.60
29775;DHT22;16676;51.202;6.774;2022-10-16T00:05:22;20.20;75.50
29775;DHT22;16676;51.202;6.774;2022-10-16T00:09:24;20.20;75.30
29775;DHT22;16676;51.202;6.774;2022-10-16T00:13:27;20.20;75.40
29775;DHT22;16676;51.202;6.774;2022-10-16T00:17:29;20.20;75.40
29775;DHT22;16676;51.202;6.774;2022-10-16T00:21:32;20.20;75.40
29775;DHT22;16676;51.202;6.774;2022-10-16T00:25:34;20.20;75.20
29775;DHT22;16676;51.202;6.774;2022-10-16T00:29:38;20.20;75.00
29775;DHT22;16676;51.202;6.774;2022-10-16T00:33:40;20.20;75.30
29775;DHT22;16676;51.202;6.774;2022-10-16T00:37:41;20.20;75.00
29775;DHT22;16676;51.202;6.774;2022-10-16T00:41:43;20.20;75.40
29775;DHT22;16676;51.202;6.774;2022-10-16T00:45:47;20.20;75.10
29775;DHT22;16676;51.202;6.774;2022-10-16T00:49:50;20.20;75.20
29775;DHT22;16676;51.202;6.774;2022-10-16T00:53:53;20.20;75.00
29775;DHT22;16676;51.202;6.774;2022-10-16T00:57:56;20.20;75.00
29775;DHT22;16676;51.202;6.774;2022-10-16T01:02:01;20.20;74.90
29775;DHT22;16676;51.202;6.774;2022-10-16T01:06:12;20.20;75.00
29775;DHT22;16676;51.202;6.774;2022-10-16T01:10:23;20.20;75.00
29775;DHT22;16676;51.202;6.774;2022-10-16T01:14:32;20.20;75.10
29775;DHT22;16676;51.202;6.774;2022-10-16T01:18:42;20.10;74.90
29775;DHT22;16676;51.202;6.774;2022-10-16T01:22:56;20.20;75.00
29775;DHT22;16676;51.202;6.774;2022-10-16T01:27:13;20.10;74.70
29775;DHT22;16676;51.202;6.774;2022-10-16T01:31:18;20.10;75.70
29775;DHT22;16676;51.202;6.774;2022-10-16T01:35:23;20.10;74.90
29775;DHT22;16676;51.202;6.774;2022-10-16T01:39:30;20.10;74.70
29775;DHT22;16676;51.202;6.774;2022-10-16T01:43:37;20.10;74.70
29775;DHT22;16676;51.202;6.774;2022-10-16T01:47:41;20.10;74.70
29775;DHT22;16676;51.202;6.774;2022-10-16T01:51:47;20.10;74.90
29775;DHT22;16676;51.202;6.774;2022-10-16T01:55:52;20.10;74.60
29775;DHT22;16676;51.202;6.774;2022-10-16T02:00:01;20.10;74.70
29775;DHT22;16676;51.202;6.774;2022-10-16T02:04:08;20.10;74.50
29775;DHT22;16676;51.202;6.774;2022-10-16T02:08:10;20.10;74.60
29775;DHT22;16676;51.202;6.774;2022-10-16T02:12:17;20.10;75.20
29775;DHT22;16676;51.202;6.774;2022-10-16T02:16:33;20.10;74.40
29775;DHT22;16676;51.202;6.774;2022-10-16T02:20:46;20.10;74.40
29775;DHT22;16676;51.202;6.774;2022-10-16T02:24:54;20.10;74.50
29775;DHT22;16676;51.202;6.774;2022-10-16T02:29:01;20.10;74.40
29775;DHT22;16676;51.202;6.774;2022-10-16T02:33:06;20.10;74.60
29775;DHT22;16676;51.202;6.774;2022-10-16T02:37:09;20.10;74.50
29775;DHT22;16676;51.202;6.774;2022-10-16T02:41:11;20.00;74.40
29775;DHT22;16676;51.202;6.774;2022-10-16T02:45:12;20.10;74.50
29775;DHT22;16676;51.202;6.774;2022-10-16T02:49:15;20.10;74.50
29775;DHT22;16676;51.202;6.774;2022-10-16T02:53:18;20.00;74.10
29775;DHT22;16676;51.202;6.774;2022-10-16T02:57:20;20.10;74.40
29775;DHT22;16676;51.202;6.774;2022-10-16T03:01:22;20.10;74.30
29775;DHT22;16676;51.202;6.774;2022-10-16T03:05:25;20.10;74.20
29775;DHT22;16676;51.202;6.774;2022-10-16T03:09:27;20.10;74.10
29775;DHT22;16676;51.202;6.774;2022-10-16T03:13:29;20.10;74.30
29775;DHT22;16676;51.202;6.774;2022-10-16T03:17:31;20.00;74.10
29775;DHT22;16676;51.202;6.774;2022-10-16T03:21:35;20.10;74.10
29775;DHT22;16676;51.202;6.774;2022-10-16T03:25:36;20.00;73.90
29775;DHT22;16676;51.202;6.774;2022-10-16T03:29:38;20.00;74.00
29775;DHT22;16676;51.202;6.774;2022-10-16T03:33:40;20.00;74.00
29775;DHT22;16676;51.202;6.774;2022-10-16T03:37:43;20.00;73.70
29775;DHT22;16676;51.202;6.774;2022-10-16T03:41:45;20.00;73.90
29775;DHT22;16676;51.202;6.774;2022-10-16T03:45:47;20.10;73.80
29775;DHT22;16676;51.202;6.774;2022-10-16T03:49:51;20.10;74.00
29775;DHT22;16676;51.202;6.774;2022-10-16T03:53:54;20.00;73.80
29775;DHT22;16676;51.202;6.774;2022-10-16T03:57:56;20.10;73.90
29775;DHT22;16676;51.202;6.774;2022-10-16T04:01:57;20.00;73.70
29775;DHT22;16676;51.202;6.774;2022-10-16T04:05:59;20.00;73.80
29775;DHT22;16676;51.202;6.774;2022-10-16T04:10:03;20.00;73.80
29775;DHT22;16676;51.202;6.774;2022-10-16T04:14:05;20.00;73.70
29775;DHT22;16676;51.202;6.774;2022-10-16T04:18:07;20.00;73.80
29775;DHT22;16676;51.202;6.774;2022-10-16T04:22:09;20.00;73.80
29775;DHT22;16676;51.202;6.774;2022-10-16T04:26:12;20.00;73.80
29775;DHT22;16676;51.202;6.774;2022-10-16T04:30:14;20.00;73.50
29775;DHT22;16676;51.202;6.774;2022-10-16T04:34:16;20.00;73.60
29775;DHT22;16676;51.202;6.774;2022-10-16T04:38:17;20.00;73.40
29775;DHT22;16676;51.202;6.774;2022-10-16T04:42:21;20.00;73.40
29775;DHT22;16676;51.202;6.774;2022-10-16T04:46:22;20.00;73.20
29775;DHT22;16676;51.202;6.774;2022-10-16T04:50:24;20.00;73.40
29775;DHT22;16676;51.202;6.774;2022-10-16T04:54:26;20.00;73.20
29775;DHT22;16676;51.202;6.774;2022-10-16T04:58:29;20.00;73.20
29775;DHT22;16676;51.202;6.774;2022-10-16T05:02:31;20.00;73.20
29775;DHT22;16676;51.202;6.774;2022-10-16T05:06:33;20.00;73.30
29775;DHT22;16676;51.202;6.774;2022-10-16T05:10:35;20.00;73.20
29775;DHT22;16676;51.202;6.774;2022-10-16T05:14:38;19.90;73.10
29775;DHT22;16676;51.202;6.774;2022-10-16T05:18:40;19.90;73.30
29775;DHT22;16676;51.202;6.774;2022-10-16T05:22:41;19.90;73.30
29775;DHT22;16676;51.202;6.774;2022-10-16T05:26:43;20.00;73.40
29775;DHT22;16676;51.202;6.774;2022-10-16T05:30:46;20.00;73.30
29775;DHT22;16676;51.202;6.774;2022-10-16T05:34:48;19.90;73.30
29775;DHT22;16676;51.202;6.774;2022-10-16T05:38:50;20.00;73.20
29775;DHT22;16676;51.202;6.774;2022-10-16T05:42:55;20.00;73.40
29775;DHT22;16676;51.202;6.774;2022-10-16T05:46:58;19.90;73.30
29775;DHT22;16676;51.202;6.774;2022-10-16T05:51:02;19.90;73.20
29775;DHT22;16676;51.202;6.774;2022-10-16T05:55:05;19.90;73.10
29775;DHT22;16676;51.202;6.774;2022-10-16T05:59:07;19.90;73.10
29775;DHT22;16676;51.202;6.774;2022-10-16T06:03:10;19.90;73.00
29775;DHT22;16676;51.202;6.774;2022-10-16T06:07:11;19.90;73.10
29775;DHT22;16676;51.202;6.774;2022-10-16T06:11:15;19.90;72.80
29775;DHT22;16676;51.202;6.774;2022-10-16T06:15:17;19.90;73.00
29775;DHT22;16676;51.202;6.774;2022-10-16T06:19:20;19.90;72.80
29775;DHT22;16676;51.202;6.774;2022-10-16T06:23:23;19.90;72.90
29775;DHT22;16676;51.202;6.774;2022-10-16T06:27:25;19.90;73.10
29775;DHT22;16676;51.202;6.774;2022-10-16T06:31:28;19.90;72.90
29775;DHT22;16676;51.202;6.774;2022-10-16T06:35:32;19.90;72.80
29775;DHT22;16676;51.202;6.774;2022-10-16T06:39:34;19.90;72.60
29775;DHT22;16676;51.202;6.774;2022-10-16T06:43:36;20.10;71.80
29775;DHT22;16676;51.202;6.774;2022-10-16T06:47:38;20.50;70.60
29775;DHT22;16676;51.202;6.774;2022-10-16T06:51:41;21.10;67.70
29775;DHT22;16676;51.202;6.774;2022-10-16T06:55:43;20.90;67.70
29775;DHT22;16676;51.202;6.774;2022-10-16T06:59:44;21.00;67.80
29775;DHT22;16676;51.202;6.774;2022-10-16T07:03:46;21.20;66.60
29775;DHT22;16676;51.202;6.774;2022-10-16T07:07:50;20.90;68.10
29775;DHT22;16676;51.202;6.774;2022-10-16T07:11:52;20.60;69.30
29775;DHT22;16676;51.202;6.774;2022-10-16T07:15:53;20.40;70.20
29775;DHT22;16676;51.202;6.774;2022-10-16T07:19:55;20.30;70.60
29775;DHT22;16676;51.202;6.774;2022-10-16T07:23:59;20.20;71.00
29775;DHT22;16676;51.202;6.774;2022-10-16T07:28:01;20.20;71.00
29775;DHT22;16676;51.202;6.774;2022-10-16T07:32:03;20.20;71.00
29775;DHT22;16676;51.202;6.774;2022-10-16T07:36:05;20.30;70.90
29775;DHT22;16676;51.202;6.774;2022-10-16T07:40:09;20.20;71.00
29775;DHT22;16676;51.202;6.774;2022-10-16T07:44:11;20.20;71.20
29775;DHT22;16676;51.202;6.774;2022-10-16T07:48:13;20.30;70.80
29775;DHT22;16676;51.202;6.774;2022-10-16T07:52:15;20.50;70.30
29775;DHT22;16676;51.202;6.774;2022-10-16T07:56:20;20.60;69.40
29775;DHT22;16676;51.202;6.774;2022-10-16T08:00:21;20.70;68.90
29775;DHT22;16676;51.202;6.774;2022-10-16T08:04:23;20.80;68.70
29775;DHT22;16676;51.202;6.774;2022-10-16T08:08:25;20.80;68.50
29775;DHT22;16676;51.202;6.774;2022-10-16T08:12:29;20.90;68.50
29775;DHT22;16676;51.202;6.774;2022-10-16T08:16:31;20.80;67.60
29775;DHT22;16676;51.202;6.774;2022-10-16T08:20:33;20.50;67.20
29775;DHT22;16676;51.202;6.774;2022-10-16T08:24:35;20.40;67.00
29775;DHT22;16676;51.202;6.774;2022-10-16T08:28:38;20.30;67.90
29775;DHT22;16676;51.202;6.774;2022-10-16T08:32:40;20.30;67.00
29775;DHT22;16676;51.202;6.774;2022-10-16T08:36:42;20.10;67.60
29775;DHT22;16676;51.202;6.774;2022-10-16T08:40:44;20.10;68.10
29775;DHT22;16676;51.202;6.774;2022-10-16T08:45:09;20.00;68.10
29775;DHT22;16676;51.202;6.774;2022-10-16T08:49:14;20.10;67.80
29775;DHT22;16676;51.202;6.774;2022-10-16T08:53:19;20.10;67.70
29775;DHT22;16676;51.202;6.774;2022-10-16T08:57:25;20.10;67.60
29775;DHT22;16676;51.202;6.774;2022-10-16T09:01:38;20.20;67.50
29775;DHT22;16676;51.202;6.774;2022-10-16T09:05:54;20.00;67.50
29775;DHT22;16676;51.202;6.774;2022-10-16T09:10:11;20.00;67.00
29775;DHT22;16676;51.202;6.774;2022-10-16T09:14:36;20.00;65.80
29775;DHT22;16676;51.202;6.774;2022-10-16T09:18:48;20.10;65.80
29775;DHT22;16676;51.202;6.774;2022-10-16T09:22:58;20.20;65.60
29775;DHT22;16676;51.202;6.774;2022-10-16T09:27:03;20.30;65.20
29775;DHT22;16676;51.202;6.774;2022-10-16T09:31:05;20.30;64.10
29775;DHT22;16676;51.202;6.774;2022-10-16T09:35:14;20.30;64.10
29775;DHT22;16676;51.202;6.774;2022-10-16T09:39:16;20.30;64.10
29775;DHT22;16676;51.202;6.774;2022-10-16T09:43:23;20.40;63.80
29775;DHT22;16676;51.202;6.774;2022-10-16T09:47:29;20.40;63.10
29775;DHT22;16676;51.202;6.774;2022-10-16T09:51:34;20.70;63.50
29775;DHT22;16676;51.202;6.774;2022-10-16T09:55:47;20.70;63.10
29775;DHT22;16676;51.202;6.774;2022-10-16T09:59:50;20.70;62.70
29775;DHT22;16676;51.202;6.774;2022-10-16T10:03:56;20.60;62.90
29775;DHT22;16676;51.202;6.774;2022-10-16T10:08:03;20.50;63.10
29775;DHT22;16676;51.202;6.774;2022-10-16T10:12:17;20.60;62.50
29775;DHT22;16676;51.202;6.774;2022-10-16T10:16:24;20.80;62.20
29775;DHT22;16676;51.202;6.774;2022-10-16T10:20:27;20.90;62.10
29775;DHT22;16676;51.202;6.774;2022-10-16T10:24:30;20.90;61.70
29775;DHT22;16676;51.202;6.774;2022-10-16T10:33:09;20.90;61.70
29775;DHT22;16676;51.202;6.774;2022-10-16T10:37:29;20.90;61.40
29775;DHT22;16676;51.202;6.774;2022-10-16T10:42:01;20.90;61.00
29775;DHT22;16676;51.202;6.774;2022-10-16T10:46:04;20.90;61.00
29775;DHT22;16676;51.202;6.774;2022-10-16T10:50:12;20.90;60.70
29775;DHT22;16676;51.202;6.774;2022-10-16T10:54:22;21.00;61.00
29775;DHT22;16676;51.202;6.774;2022-10-16T10:58:48;21.20;60.30
29775;DHT22;16676;51.202;6.774;2022-10-16T11:02:58;21.10;59.70
29775;DHT22;16676;51.202;6.774;2022-10-16T11:07:05;21.10;59.80
29775;DHT22;16676;51.202;6.774;2022-10-16T11:11:10;21.30;59.80
29775;DHT22;16676;51.202;6.774;2022-10-16T11:15:18;21.40;58.90
29775;DHT22;16676;51.202;6.774;2022-10-16T11:19:24;21.40;58.70
29775;DHT22;16676;51.202;6.774;2022-10-16T11:23:30;21.50;58.50
29775;DHT22;16676;51.202;6.774;2022-10-16T11:27:37;21.60;57.90
29775;DHT22;16676;51.202;6.774;2022-10-16T11:31:42;21.70;57.50
29775;DHT22;16676;51.202;6.774;2022-10-16T11:35:50;21.70;57.50
29775;DHT22;16676;51.202;6.774;2022-10-16T11:39:58;21.70;57.50
29775;DHT22;16676;51.202;6.774;2022-10-16T11:44:14;21.90;57.20
29775;DHT22;16676;51.202;6.774;2022-10-16T11:48:24;21.80;57.50
29775;DHT22;16676;51.202;6.774;2022-10-16T11:52:33;21.70;57.30
29775;DHT22;16676;51.202;6.774;2022-10-16T11:56:39;21.80;57.20
29775;DHT22;16676;51.202;6.774;2022-10-16T12:00:46;22.00;56.70
29775;DHT22;16676;51.202;6.774;2022-10-16T12:04:56;21.90;56.40
29775;DHT22;16676;51.202;6.774;2022-10-16T12:09:03;22.00;56.40
29775;DHT22;16676;51.202;6.774;2022-10-16T12:13:31;22.30;55.90
29775;DHT22;16676;51.202;6.774;2022-10-16T12:17:38;22.30;56.30
29775;DHT22;16676;51.202;6.774;2022-10-16T12:21:40;22.30;56.20
29775;DHT22;16676;51.202;6.774;2022-10-16T12:25:42;22.50;55.40
29775;DHT22;16676;51.202;6.774;2022-10-16T12:29:55;22.50;55.20
29775;DHT22;16676;51.202;6.774;2022-10-16T12:33:59;22.50;54.90
29775;DHT22;16676;51.202;6.774;2022-10-16T12:38:08;22.60;54.70
29775;DHT22;16676;51.202;6.774;2022-10-16T12:42:31;22.70;55.20
29775;DHT22;16676;51.202;6.774;2022-10-16T12:46:37;22.60;55.40
29775;DHT22;16676;51.202;6.774;2022-10-16T12:50:39;22.50;55.90
29775;DHT22;16676;51.202;6.774;2022-10-16T12:54:42;22.20;56.20
29775;DHT22;16676;51.202;6.774;2022-10-16T12:58:57;22.10;57.10
29775;DHT22;16676;51.202;6.774;2022-10-16T13:03:22;21.90;57.10
29775;DHT22;16676;51.202;6.774;2022-10-16T13:07:37;21.80;57.40
29775;DHT22;16676;51.202;6.774;2022-10-16T13:11:56;21.80;57.30
29775;DHT22;16676;51.202;6.774;2022-10-16T13:16:12;21.80;57.00
29775;DHT22;16676;51.202;6.774;2022-10-16T13:20:29;22.00;55.80
29775;DHT22;16676;51.202;6.774;2022-10-16T13:24:57;22.10;55.70
29775;DHT22;16676;51.202;6.774;2022-10-16T13:29:04;22.00;56.20
29775;DHT22;16676;51.202;6.774;2022-10-16T13:33:12;21.90;56.40
29775;DHT22;16676;51.202;6.774;2022-10-16T13:37:19;21.90;56.30
29775;DHT22;16676;51.202;6.774;2022-10-16T13:41:21;21.90;56.20
29775;DHT22;16676;51.202;6.774;2022-10-16T13:45:24;21.80;56.20
29775;DHT22;16676;51.202;6.774;2022-10-16T13:49:27;22.00;55.50
29775;DHT22;16676;51.202;6.774;2022-10-16T13:53:32;22.00;55.70
29775;DHT22;16676;51.202;6.774;2022-10-16T13:57:34;21.90;55.80
29775;DHT22;16676;51.202;6.774;2022-10-16T14:01:41;21.80;56.10
29775;DHT22;16676;51.202;6.774;2022-10-16T14:05:48;21.50;57.10
29775;DHT22;16676;51.202;6.774;2022-10-16T14:09:53;21.40;57.70
29775;DHT22;16676;51.202;6.774;2022-10-16T14:13:55;21.40;57.30
29775;DHT22;16676;51.202;6.774;2022-10-16T14:17:58;21.50;57.40
29775;DHT22;16676;51.202;6.774;2022-10-16T14:22:01;21.60;56.90
29775;DHT22;16676;51.202;6.774;2022-10-16T14:26:16;21.60;56.80
29775;DHT22;16676;51.202;6.774;2022-10-16T14:30:19;21.50;57.60
29775;DHT22;16676;51.202;6.774;2022-10-16T14:34:26;21.50;57.70
29775;DHT22;16676;51.202;6.774;2022-10-16T14:38:29;21.60;57.70
29775;DHT22;16676;51.202;6.774;2022-10-16T14:42:32;21.70;57.90
29775;DHT22;16676;51.202;6.774;2022-10-16T14:46:36;21.70;57.90
29775;DHT22;16676;51.202;6.774;2022-10-16T14:50:38;21.60;57.30
29775;DHT22;16676;51.202;6.774;2022-10-16T14:54:40;21.60;57.30
29775;DHT22;16676;51.202;6.774;2022-10-16T14:58:43;21.60;57.10
29775;DHT22;16676;51.202;6.774;2022-10-16T15:02:46;21.70;57.50
29775;DHT22;16676;51.202;6.774;2022-10-16T15:06:48;21.50;57.70
29775;DHT22;16676;51.202;6.774;2022-10-16T15:10:51;21.20;58.90
29775;DHT22;16676;51.202;6.774;2022-10-16T15:14:54;21.30;59.00
29775;DHT22;16676;51.202;6.774;2022-10-16T15:18:56;21.30;59.00
29775;DHT22;16676;51.202;6.774;2022-10-16T15:22:58;21.50;58.70
29775;DHT22;16676;51.202;6.774;2022-10-16T15:26:59;21.60;58.50
29775;DHT22;16676;51.202;6.774;2022-10-16T15:31:04;21.60;58.50
29775;DHT22;16676;51.202;6.774;2022-10-16T15:35:08;21.50;58.70
29775;DHT22;16676;51.202;6.774;2022-10-16T15:39:13;21.70;58.90
29775;DHT22;16676;51.202;6.774;2022-10-16T15:43:15;21.70;58.60
29775;DHT22;16676;51.202;6.774;2022-10-16T15:47:18;21.80;58.90
29775;DHT22;16676;51.202;6.774;2022-10-16T15:51:20;21.80;58.90
29775;DHT22;16676;51.202;6.774;2022-10-16T15:55:22;21.80;59.00
29775;DHT22;16676;51.202;6.774;2022-10-16T15:59:24;21.80;59.10
29775;DHT22;16676;51.202;6.774;2022-10-16T16:03:28;21.80;59.10
29775;DHT22;16676;51.202;6.774;2022-10-16T16:07:32;21.80;59.30
29775;DHT22;16676;51.202;6.774;2022-10-16T16:11:34;21.80;59.30
29775;DHT22;16676;51.202;6.774;2022-10-16T16:15:39;21.80;60.00
29775;DHT22;16676;51.202;6.774;2022-10-16T16:19:43;21.80;59.60
29775;DHT22;16676;51.202;6.774;2022-10-16T16:23:44;21.80;59.70
29775;DHT22;16676;51.202;6.774;2022-10-16T16:27:46;21.80;59.80
29775;DHT22;16676;51.202;6.774;2022-10-16T16:31:48;21.80;59.90
29775;DHT22;16676;51.202;6.774;2022-10-16T16:35:56;21.80;59.90
29775;DHT22;16676;51.202;6.774;2022-10-16T16:39:58;21.80;60.00
29775;DHT22;16676;51.202;6.774;2022-10-16T16:44:05;21.80;59.90
29775;DHT22;16676;51.202;6.774;2022-10-16T16:48:07;21.70;59.90
29775;DHT22;16676;51.202;6.774;2022-10-16T16:52:11;21.80;60.00
29775;DHT22;16676;51.202;6.774;2022-10-16T16:56:13;21.70;60.00
29775;DHT22;16676;51.202;6.774;2022-10-16T17:00:15;21.70;60.20
29775;DHT22;16676;51.202;6.774;2022-10-16T17:04:17;21.70;60.20
29775;DHT22;16676;51.202;6.774;2022-10-16T17:08:20;21.70;60.40
29775;DHT22;16676;51.202;6.774;2022-10-16T17:12:22;21.70;60.50
29775;DHT22;16676;51.202;6.774;2022-10-16T17:16:26;21.70;60.50
29775;DHT22;16676;51.202;6.774;2022-10-16T17:20:28;21.70;60.60
29775;DHT22;16676;51.202;6.774;2022-10-16T17:24:32;21.70;60.60
29775;DHT22;16676;51.202;6.774;2022-10-16T17:28:34;21.70;60.80
29775;DHT22;16676;51.202;6.774;2022-10-16T17:32:35;21.70;61.00
29775;DHT22;16676;51.202;6.774;2022-10-16T17:36:38;21.70;61.00
29775;DHT22;16676;51.202;6.774;2022-10-16T17:40:44;21.80;61.10
29775;DHT22;16676;51.202;6.774;2022-10-16T17:44:46;21.80;61.10
29775;DHT22;16676;51.202;6.774;2022-10-16T17:48:50;21.80;61.30
29775;DHT22;16676;51.202;6.774;2022-10-16T17:52:53;21.70;61.40
29775;DHT22;16676;51.202;6.774;2022-10-16T17:56:56;21.80;61.40
29775;DHT22;16676;51.202;6.774;2022-10-16T18:00:58;21.80;61.50
29775;DHT22;16676;51.202;6.774;2022-10-16T18:05:00;21.80;62.10
29775;DHT22;16676;51.202;6.774;2022-10-16T18:09:06;21.80;62.50
29775;DHT22;16676;51.202;6.774;2022-10-16T18:13:10;21.80;62.80
29775;DHT22;16676;51.202;6.774;2022-10-16T18:17:12;21.90;62.90
29775;DHT22;16676;51.202;6.774;2022-10-16T18:21:16;21.80;63.20
29775;DHT22;16676;51.202;6.774;2022-10-16T18:25:20;21.90;63.70
29775;DHT22;16676;51.202;6.774;2022-10-16T18:29:24;21.90;63.40
29775;DHT22;16676;51.202;6.774;2022-10-16T18:33:27;21.90;63.90
29775;DHT22;16676;51.202;6.774;2022-10-16T18:37:30;21.80;63.90
29775;DHT22;16676;51.202;6.774;2022-10-16T18:41:32;21.90;64.30
29775;DHT22;16676;51.202;6.774;2022-10-16T18:45:35;21.90;64.40
29775;DHT22;16676;51.202;6.774;2022-10-16T18:49:37;21.80;64.50
29775;DHT22;16676;51.202;6.774;2022-10-16T18:53:40;21.80;64.40
29775;DHT22;16676;51.202;6.774;2022-10-16T18:57:42;21.90;64.50
29775;DHT22;16676;51.202;6.774;2022-10-16T19:01:45;21.90;64.50
29775;DHT22;16676;51.202;6.774;2022-10-16T19:05:48;21.80;64.50
29775;DHT22;16676;51.202;6.774;2022-10-16T19:09:50;21.80;64.80
29775;DHT22;16676;51.202;6.774;2022-10-16T19:13:52;21.80;65.20
29775;DHT22;16676;51.202;6.774;2022-10-16T19:17:56;21.80;65.20
29775;DHT22;16676;51.202;6.774;2022-10-16T19:21:58;21.80;65.60
29775;DHT22;16676;51.202;6.774;2022-10-16T19:26:12;21.80;65.80
29775;DHT22;16676;51.202;6.774;2022-10-16T19:30:15;21.80;65.80
29775;DHT22;16676;51.202;6.774;2022-10-16T19:34:18;21.80;65.90
29775;DHT22;16676;51.202;6.774;2022-10-16T19:38:20;21.80;66.20
29775;DHT22;16676;51.202;6.774;2022-10-16T19:42:22;21.80;66.40
29775;DHT22;16676;51.202;6.774;2022-10-16T19:46:24;21.80;65.80
29775;DHT22;16676;51.202;6.774;2022-10-16T19:50:28;21.80;66.20
29775;DHT22;16676;51.202;6.774;2022-10-16T19:54:29;21.80;66.40
29775;DHT22;16676;51.202;6.774;2022-10-16T19:58:31;21.80;66.10
29775;DHT22;16676;51.202;6.774;2022-10-16T20:02:33;21.80;66.90
29775;DHT22;16676;51.202;6.774;2022-10-16T20:06:37;21.70;67.20
29775;DHT22;16676;51.202;6.774;2022-10-16T20:10:39;21.70;67.30
29775;DHT22;16676;51.202;6.774;2022-10-16T20:14:47;21.70;67.30
29775;DHT22;16676;51.202;6.774;2022-10-16T20:18:50;21.70;67.70
29775;DHT22;16676;51.202;6.774;2022-10-16T20:22:53;21.70;67.70
29775;DHT22;16676;51.202;6.774;2022-10-16T20:26:55;21.70;67.70
29775;DHT22;16676;51.202;6.774;2022-10-16T20:31:05;21.70;67.60
29775;DHT22;16676;51.202;6.774;2022-10-16T20:35:08;21.80;67.70
29775;DHT22;16676;51.202;6.774;2022-10-16T20:39:11;21.70;67.80
29775;DHT22;16676;51.202;6.774;2022-10-16T20:43:16;21.70;67.80
29775;DHT22;16676;51.202;6.774;2022-10-16T20:47:18;21.70;67.90
29775;DHT22;16676;51.202;6.774;2022-10-16T20:51:22;21.70;67.70
29775;DHT22;16676;51.202;6.774;2022-10-16T20:55:26;21.70;68.00
29775;DHT22;16676;51.202;6.774;2022-10-16T20:59:28;21.70;67.90
29775;DHT22;16676;51.202;6.774;2022-10-16T21:03:29;21.70;68.10
29775;DHT22;16676;51.202;6.774;2022-10-16T21:07:31;21.70;68.20
29775;DHT22;16676;51.202;6.774;2022-10-16T21:11:35;21.70;68.00
29775;DHT22;16676;51.202;6.774;2022-10-16T21:15:37;21.70;68.10
29775;DHT22;16676;51.202;6.774;2022-10-16T21:19:39;21.70;68.10
29775;DHT22;16676;51.202;6.774;2022-10-16T21:23:40;21.70;68.10
29775;DHT22;16676;51.202;6.774;2022-10-16T21:27:44;21.70;68.10
29775;DHT22;16676;51.202;6.774;2022-10-16T21:31:46;21.70;68.30
29775;DHT22;16676;51.202;6.774;2022-10-16T21:35:48;21.70;68.10
29775;DHT22;16676;51.202;6.774;2022-10-16T21:39:50;21.70;68.30
29775;DHT22;16676;51.202;6.774;2022-10-16T21:43:54;21.70;68.10
29775;DHT22;16676;51.202;6.774;2022-10-16T21:47:56;21.60;68.20
29775;DHT22;16676;51.202;6.774;2022-10-16T21:51:57;21.70;68.30
29775;DHT22;16676;51.202;6.774;2022-10-16T21:55:59;21.60;68.10
29775;DHT22;16676;51.202;6.774;2022-10-16T22:00:03;21.60;68.10
29775;DHT22;16676;51.202;6.774;2022-10-16T22:04:05;21.60;68.40
29775;DHT22;16676;51.202;6.774;2022-10-16T22:08:07;21.60;68.10
29775;DHT22;16676;51.202;6.774;2022-10-16T22:12:09;21.60;68.00
29775;DHT22;16676;51.202;6.774;2022-10-16T22:16:12;21.70;68.30
29775;DHT22;16676;51.202;6.774;2022-10-16T22:20:14;21.70;68.10
29775;DHT22;16676;51.202;6.774;2022-10-16T22:24:16;21.60;68.00
29775;DHT22;16676;51.202;6.774;2022-10-16T22:28:18;21.60;68.10
29775;DHT22;16676;51.202;6.774;2022-10-16T22:32:22;21.60;68.00
29775;DHT22;16676;51.202;6.774;2022-10-16T22:36:24;21.60;68.30
29775;DHT22;16676;51.202;6.774;2022-10-16T22:40:26;21.60;68.20
29775;DHT22;16676;51.202;6.774;2022-10-16T22:44:28;21.60;68.40
29775;DHT22;16676;51.202;6.774;2022-10-16T22:48:31;21.60;68.50
29775;DHT22;16676;51.202;6.774;2022-10-16T22:52:33;21.60;68.20
29775;DHT22;16676;51.202;6.774;2022-10-16T22:56:36;21.60;68.30
29775;DHT22;16676;51.202;6.774;2022-10-16T23:00:40;21.60;68.40
29775;DHT22;16676;51.202;6.774;2022-10-16T23:04:43;21.60;68.10
29775;DHT22;16676;51.202;6.774;2022-10-16T23:08:49;21.60;68.30
29775;DHT22;16676;51.202;6.774;2022-10-16T23:12:51;21.60;68.40
29775;DHT22;16676;51.202;6.774;2022-10-16T23:16:53;21.60;68.50
29775;DHT22;16676;51.202;6.774;2022-10-16T23:20:56;21.60;68.20
29775;DHT22;16676;51.202;6.774;2022-10-16T23:24:58;21.60;68.40
29775;DHT22;16676;51.202;6.774;2022-10-16T23:29:00;21.50;68.20
29775;DHT22;16676;51.202;6.774;2022-10-16T23:33:02;21.60;68.40
29775;DHT22;16676;51.202;6.774;2022-10-16T23:37:05;21.60;68.40
29775;DHT22;16676;51.202;6.774;2022-10-16T23:41:07;21.60;68.80
29775;DHT22;16676;51.202;6.774;2022-10-16T23:45:09;21.50;68.20
29775;DHT22;16676;51.202;6.774;2022-10-16T23:49:10;21.60;68.30
29775;DHT22;16676;51.202;6.774;2022-10-16T23:53:14;21.50;68.40
29775;DHT22;16676;51.202;6.774;2022-10-16T23:57:15;21.50;68.50
